Time;durP1;ratioP1;P1;durP2;ratioP2;P2;SDS_P1;SDS_P2;PMS_P1;PMS_P2;Temp;Humidity;BMP_temperature;BMP_pressure;BME280_temperature;BME280_humidity;BME280_pressure;Samples;Min_cycle;Max_cycle;Signal;HPM_P1;HPM_P2
2022/07/08 00:01:25;;;;;;;2.20;1.80;;;;;;;;;;5012706;28;20422;-53
2022/07/08 00:03:51;;;;;;;2.17;2.00;;;;;;;;;;5012898;28;20499;-52
2022/07/08 00:06:17;;;;;;;6.03;1.60;;;;;;;;;;5012777;28;20887;-52
2022/07/08 00:08:44;;;;;;;8.73;2.00;;;;;;;;;;5013117;28;20537;-52
2022/07/08 00:11:10;;;;;;;3.00;1.70;;;;;;;;;;5012541;28;20379;-52
2022/07/08 00:13:36;;;;;;;2.40;2.20;;;;;;;;;;5012871;28;20395;-52
2022/07/08 00:16:03;;;;;;;1.60;1.33;;;;;;;;;;5012817;28;20527;-52
2022/07/08 00:18:30;;;;;;;3.60;1.60;;;;;;;;;;5012597;28;20400;-52
2022/07/08 00:20:56;;;;;;;2.60;1.40;;;;;;;;;;5012485;28;20407;-52
2022/07/08 00:23:22;;;;;;;4.97;1.50;;;;;;;;;;5012703;28;20459;-52
2022/07/08 00:25:48;;;;;;;4.77;1.80;;;;;;;;;;5013066;28;20400;-51
2022/07/08 00:28:14;;;;;;;3.83;1.50;;;;;;;;;;5012630;28;20398;-52
2022/07/08 00:30:40;;;;;;;2.80;1.70;;;;;;;;;;5012186;28;20745;-52
2022/07/08 00:33:05;;;;;;;5.27;1.60;;;;;;;;;;5012472;28;20414;-54
2022/07/08 00:35:31;;;;;;;1.50;1.40;;;;;;;;;;5012769;28;20437;-53
2022/07/08 00:37:57;;;;;;;5.33;1.97;;;;;;;;;;5012502;28;20417;-52
2022/07/08 00:40:23;;;;;;;5.97;1.83;;;;;;;;;;5012239;28;20467;-52
2022/07/08 00:42:49;;;;;;;3.73;1.57;;;;;;;;;;5012314;28;20484;-52
2022/07/08 00:45:16;;;;;;;7.27;2.10;;;;;;;;;;5012412;28;20378;-52
2022/07/08 00:47:43;;;;;;;2.70;1.57;;;;;;;;;;5012669;28;20426;-52
2022/07/08 00:50:09;;;;;;;2.30;1.60;;;;;;;;;;5012074;28;20370;-55
2022/07/08 00:52:36;;;;;;;3.20;1.70;;;;;;;;;;5012122;28;20414;-52
2022/07/08 00:55:02;;;;;;;5.83;1.60;;;;;;;;;;5012281;28;20377;-51
2022/07/08 00:57:29;;;;;;;3.23;1.63;;;;;;;;;;5012211;28;20417;-51
2022/07/08 00:59:55;;;;;;;4.90;1.67;;;;;;;;;;5012213;28;20495;-52
2022/07/08 01:02:21;;;;;;;4.17;1.60;;;;;;;;;;5011076;28;20433;-52
2022/07/08 01:04:47;;;;;;;3.50;1.97;;;;;;;;;;5011412;28;20384;-52
2022/07/08 01:07:13;;;;;;;3.97;1.70;;;;;;;;;;5011744;28;20409;-52
2022/07/08 01:09:39;;;;;;;15.33;1.80;;;;;;;;;;5012662;28;20778;-56
2022/07/08 01:12:06;;;;;;;7.83;1.50;;;;;;;;;;5011641;28;20786;-54
2022/07/08 01:14:32;;;;;;;6.73;1.60;;;;;;;;;;5012021;28;20404;-55
2022/07/08 01:16:58;;;;;;;5.97;3.00;;;;;;;;;;5011938;28;20406;-56
2022/07/08 01:19:24;;;;;;;4.90;2.17;;;;;;;;;;5015914;28;20406;-55
2022/07/08 01:21:50;;;;;;;6.00;2.53;;;;;;;;;;5018557;28;20382;-55
2022/07/08 01:24:17;;;;;;;6.13;2.03;;;;;;;;;;5018414;28;20419;-56
2022/07/08 01:26:43;;;;;;;6.07;1.90;;;;;;;;;;5018412;28;20409;-56
2022/07/08 01:29:09;;;;;;;4.70;1.70;;;;;;;;;;5018402;28;20385;-56
2022/07/08 01:31:35;;;;;;;4.87;1.83;;;;;;;;;;5018291;28;20395;-56
2022/07/08 01:34:01;;;;;;;5.53;2.80;;;;;;;;;;5018490;28;20377;-55
2022/07/08 01:36:27;;;;;;;6.40;2.00;;;;;;;;;;5018568;28;20483;-55
2022/07/08 01:38:52;;;;;;;8.20;3.67;;;;;;;;;;5018294;28;20427;-55
2022/07/08 01:41:18;;;;;;;6.63;1.80;;;;;;;;;;5018497;28;20454;-55
2022/07/08 01:43:44;;;;;;;4.90;1.80;;;;;;;;;;5018194;28;20456;-55
2022/07/08 01:46:10;;;;;;;2.97;2.00;;;;;;;;;;5018430;28;20470;-55
2022/07/08 01:48:37;;;;;;;3.47;2.33;;;;;;;;;;5018487;28;20881;-55
2022/07/08 01:51:03;;;;;;;15.80;2.33;;;;;;;;;;5018093;28;20486;-56
2022/07/08 01:53:29;;;;;;;4.53;1.70;;;;;;;;;;5018308;28;20411;-54
2022/07/08 01:55:55;;;;;;;4.90;2.00;;;;;;;;;;5018314;28;20389;-56
2022/07/08 01:58:21;;;;;;;5.23;1.70;;;;;;;;;;5018156;28;20409;-55
2022/07/08 02:00:47;;;;;;;5.03;2.47;;;;;;;;;;5017995;28;20415;-56
2022/07/08 02:03:13;;;;;;;3.03;1.60;;;;;;;;;;5018226;28;20436;-56
2022/07/08 02:05:39;;;;;;;3.27;1.73;;;;;;;;;;5018328;28;20882;-55
2022/07/08 02:08:05;;;;;;;3.27;2.00;;;;;;;;;;5018123;28;20390;-56
2022/07/08 02:13:17;;;;;;;4.20;2.10;;;;;;;;;;5018233;28;20731;-55
2022/07/08 02:15:43;;;;;;;7.93;2.30;;;;;;;;;;5018121;28;20387;-55
2022/07/08 02:18:09;;;;;;;6.90;2.00;;;;;;;;;;5018235;28;20784;-55
2022/07/08 02:20:35;;;;;;;1.73;1.57;;;;;;;;;;5017828;28;20709;-55
2022/07/08 02:23:01;;;;;;;5.37;2.27;;;;;;;;;;5017678;28;20852;-56
2022/07/08 02:25:27;;;;;;;6.30;2.30;;;;;;;;;;5018077;28;20381;-56
2022/07/08 02:27:53;;;;;;;7.03;2.40;;;;;;;;;;5018130;28;20391;-56
2022/07/08 02:30:19;;;;;;;9.90;2.50;;;;;;;;;;5015216;28;20498;-55
2022/07/08 02:32:45;;;;;;;2.73;1.87;;;;;;;;;;5014845;28;20459;-55
2022/07/08 02:35:11;;;;;;;5.00;1.90;;;;;;;;;;5014806;28;20381;-56
2022/07/08 02:37:37;;;;;;;3.17;2.00;;;;;;;;;;5014595;28;20417;-55
2022/07/08 02:40:03;;;;;;;6.47;2.33;;;;;;;;;;5014643;28;20494;-55
2022/07/08 02:42:29;;;;;;;1.83;1.73;;;;;;;;;;5014462;28;20801;-55
2022/07/08 02:44:55;;;;;;;3.90;1.90;;;;;;;;;;5014679;28;20906;-55
2022/07/08 02:47:21;;;;;;;7.53;2.10;;;;;;;;;;5014441;28;20792;-56
2022/07/08 02:49:47;;;;;;;3.03;2.30;;;;;;;;;;5014461;28;20374;-56
2022/07/08 02:52:13;;;;;;;3.37;2.13;;;;;;;;;;5014221;28;20409;-56
2022/07/08 02:54:39;;;;;;;3.70;2.07;;;;;;;;;;5014643;28;20456;-55
2022/07/08 02:57:05;;;;;;;11.50;2.10;;;;;;;;;;5014515;28;20931;-55
2022/07/08 02:59:31;;;;;;;7.30;2.53;;;;;;;;;;5014461;28;20754;-54
2022/07/08 03:01:57;;;;;;;5.23;2.50;;;;;;;;;;5013963;28;20389;-56
2022/07/08 03:04:23;;;;;;;6.27;2.40;;;;;;;;;;5014219;28;20484;-55
2022/07/08 03:06:49;;;;;;;5.30;2.70;;;;;;;;;;5014145;28;20437;-55
2022/07/08 03:09:15;;;;;;;6.77;2.13;;;;;;;;;;5014127;28;20380;-56
2022/07/08 03:11:41;;;;;;;6.90;2.10;;;;;;;;;;5013893;28;20911;-55
2022/07/08 03:14:07;;;;;;;5.50;2.10;;;;;;;;;;5014042;28;20380;-55
2022/07/08 03:16:35;;;;;;;5.33;2.10;;;;;;;;;;5013954;28;20862;-55
2022/07/08 03:19:01;;;;;;;5.50;2.67;;;;;;;;;;5014084;28;20438;-55
2022/07/08 03:21:27;;;;;;;5.77;3.07;;;;;;;;;;5013817;28;20407;-55
2022/07/08 03:23:53;;;;;;;13.40;4.37;;;;;;;;;;5013860;28;20454;-55
2022/07/08 03:26:19;;;;;;;4.60;1.70;;;;;;;;;;5013881;28;20394;-54
2022/07/08 03:28:45;;;;;;;5.80;2.20;;;;;;;;;;5013732;28;20436;-55
2022/07/08 03:31:11;;;;;;;8.73;2.10;;;;;;;;;;5013508;28;20726;-55
2022/07/08 03:33:38;;;;;;;4.50;2.40;;;;;;;;;;5013594;28;20407;-55
2022/07/08 03:36:06;;;;;;;8.27;2.23;;;;;;;;;;5013722;28;20463;-55
2022/07/08 03:38:32;;;;;;;10.77;2.03;;;;;;;;;;5013451;28;20453;-56
2022/07/08 03:43:42;;;;;;;4.97;1.70;;;;;;;;;;5013492;28;20552;-55
2022/07/08 03:46:08;;;;;;;5.50;2.10;;;;;;;;;;5013371;28;20399;-56
2022/07/08 03:48:34;;;;;;;4.83;2.23;;;;;;;;;;5013382;28;20790;-56
2022/07/08 03:51:00;;;;;;;4.60;2.27;;;;;;;;;;5013322;28;20435;-55
2022/07/08 03:53:26;;;;;;;5.10;2.20;;;;;;;;;;5013444;28;20890;-56
2022/07/08 03:55:54;;;;;;;3.83;2.17;;;;;;;;;;5013330;28;20415;-55
2022/07/08 03:58:20;;;;;;;3.30;1.60;;;;;;;;;;5013264;28;20453;-55
2022/07/08 04:00:46;;;;;;;6.97;2.17;;;;;;;;;;5012873;28;20985;-55
2022/07/08 04:03:12;;;;;;;4.97;2.03;;;;;;;;;;5013141;28;20429;-56
2022/07/08 04:05:38;;;;;;;7.83;2.60;;;;;;;;;;5013183;28;20403;-55
2022/07/08 04:08:04;;;;;;;2.00;1.80;;;;;;;;;;5013021;28;20454;-57
2022/07/08 04:10:30;;;;;;;5.30;1.97;;;;;;;;;;5012789;28;20446;-56
2022/07/08 04:12:56;;;;;;;12.73;2.73;;;;;;;;;;5013091;28;20410;-56
2022/07/08 04:15:23;;;;;;;9.80;2.37;;;;;;;;;;5012876;28;20412;-55
2022/07/08 04:17:49;;;;;;;5.47;1.80;;;;;;;;;;5012880;28;20431;-56
2022/07/08 04:20:14;;;;;;;3.90;2.40;;;;;;;;;;5012782;28;20406;-55
2022/07/08 04:22:40;;;;;;;6.37;2.30;;;;;;;;;;5012764;28;20451;-55
2022/07/08 04:25:07;;;;;;;3.33;1.70;;;;;;;;;;5012924;28;20417;-56
2022/07/08 04:27:33;;;;;;;3.83;1.90;;;;;;;;;;5012703;28;20915;-56
2022/07/08 04:29:59;;;;;;;4.00;2.50;;;;;;;;;;5012514;28;20855;-55
2022/07/08 04:32:25;;;;;;;6.03;3.10;;;;;;;;;;5012695;28;20416;-56
2022/07/08 04:34:51;;;;;;;9.63;2.40;;;;;;;;;;5012969;28;20386;-56
2022/07/08 04:37:18;;;;;;;5.73;2.10;;;;;;;;;;5012441;28;21000;-56
2022/07/08 04:39:44;;;;;;;3.10;1.90;;;;;;;;;;5012710;28;20486;-55
2022/07/08 04:42:10;;;;;;;7.80;2.50;;;;;;;;;;5012303;28;20490;-56
2022/07/08 04:44:36;;;;;;;8.13;2.00;;;;;;;;;;5012325;28;20465;-55
2022/07/08 04:47:02;;;;;;;3.33;2.10;;;;;;;;;;5012405;28;20842;-55
2022/07/08 04:49:28;;;;;;;4.10;2.27;;;;;;;;;;5012385;28;20406;-55
2022/07/08 04:51:54;;;;;;;7.87;2.40;;;;;;;;;;5012213;28;20403;-55
2022/07/08 04:54:20;;;;;;;4.20;1.90;;;;;;;;;;5011835;28;20431;-55
2022/07/08 04:56:46;;;;;;;6.43;2.77;;;;;;;;;;5012293;28;20962;-55
2022/07/08 04:59:11;;;;;;;5.20;2.00;;;;;;;;;;5012064;28;20426;-56
2022/07/08 05:01:37;;;;;;;5.13;2.00;;;;;;;;;;5012016;28;20415;-56
2022/07/08 05:04:03;;;;;;;5.60;2.23;;;;;;;;;;5012306;28;20982;-56
2022/07/08 05:06:29;;;;;;;7.10;2.27;;;;;;;;;;5012095;28;20366;-56
2022/07/08 05:08:55;;;;;;;6.30;1.70;;;;;;;;;;5012134;28;20387;-55
2022/07/08 05:11:21;;;;;;;4.93;1.80;;;;;;;;;;5011900;28;20377;-56
2022/07/08 05:13:47;;;;;;;4.30;2.23;;;;;;;;;;5011935;28;20950;-56
2022/07/08 05:16:13;;;;;;;5.73;2.03;;;;;;;;;;5012285;28;20430;-54
2022/07/08 05:18:41;;;;;;;7.77;2.50;;;;;;;;;;5012049;28;20404;-56
2022/07/08 05:21:06;;;;;;;5.40;2.30;;;;;;;;;;5011814;28;20488;-56
2022/07/08 05:23:33;;;;;;;5.73;2.53;;;;;;;;;;5012046;28;20542;-56
2022/07/08 05:25:58;;;;;;;4.80;2.03;;;;;;;;;;5011878;28;20742;-56
2022/07/08 05:28:24;;;;;;;2.57;1.80;;;;;;;;;;5011809;28;20415;-55
2022/07/08 05:30:51;;;;;;;4.20;2.30;;;;;;;;;;5011914;28;20404;-55
2022/07/08 05:33:17;;;;;;;3.53;1.87;;;;;;;;;;5011978;28;20981;-55
2022/07/08 05:35:43;;;;;;;9.60;3.30;;;;;;;;;;5012087;28;20382;-55
2022/07/08 05:38:09;;;;;;;2.17;1.80;;;;;;;;;;5011723;28;20976;-55
2022/07/08 05:40:35;;;;;;;8.30;2.10;;;;;;;;;;5011426;28;20754;-55
2022/07/08 05:43:00;;;;;;;3.27;1.70;;;;;;;;;;5011683;28;20466;-55
2022/07/08 05:45:26;;;;;;;4.00;2.10;;;;;;;;;;5011834;28;20406;-55
2022/07/08 05:47:52;;;;;;;8.80;1.87;;;;;;;;;;5011708;28;20472;-55
2022/07/08 05:50:18;;;;;;;10.50;2.30;;;;;;;;;;5011540;28;20461;-56
2022/07/08 05:52:44;;;;;;;3.50;1.90;;;;;;;;;;5011800;28;20411;-55
2022/07/08 05:55:10;;;;;;;4.67;1.93;;;;;;;;;;5011748;28;20406;-56
2022/07/08 05:57:36;;;;;;;4.83;2.30;;;;;;;;;;5011587;28;20432;-55
2022/07/08 06:00:04;;;;;;;5.27;2.83;;;;;;;;;;5011615;28;20535;-56
2022/07/08 06:02:30;;;;;;;4.50;2.00;;;;;;;;;;5011552;28;20454;-56
2022/07/08 06:04:56;;;;;;;6.03;2.10;;;;;;;;;;5012913;28;20509;-56
2022/07/08 06:07:22;;;;;;;6.67;2.00;;;;;;;;;;5015315;28;20514;-56
2022/07/08 06:09:48;;;;;;;4.80;1.60;;;;;;;;;;5015243;28;20430;-56
2022/07/08 06:12:14;;;;;;;6.60;2.23;;;;;;;;;;5014950;28;20378;-55
2022/07/08 06:14:40;;;;;;;4.80;1.50;;;;;;;;;;5015245;28;20641;-55
2022/07/08 06:17:06;;;;;;;3.80;1.73;;;;;;;;;;5015236;28;20415;-56
2022/07/08 06:19:32;;;;;;;4.10;1.70;;;;;;;;;;5015115;28;20717;-56
2022/07/08 06:21:57;;;;;;;1.80;1.43;;;;;;;;;;5014954;28;20415;-56
2022/07/08 06:24:23;;;;;;;6.50;2.03;;;;;;;;;;5014930;28;20438;-56
2022/07/08 06:26:49;;;;;;;6.20;1.77;;;;;;;;;;5014874;28;20401;-56
2022/07/08 06:29:15;;;;;;;5.53;2.17;;;;;;;;;;5014880;28;20414;-56
2022/07/08 06:31:41;;;;;;;1.90;1.80;;;;;;;;;;5014707;28;20380;-56
2022/07/08 06:34:07;;;;;;;7.00;1.80;;;;;;;;;;5014876;28;20375;-55
2022/07/08 06:36:33;;;;;;;7.10;1.90;;;;;;;;;;5014785;28;20885;-56
2022/07/08 06:39:00;;;;;;;5.33;1.80;;;;;;;;;;5014888;28;20911;-56
2022/07/08 06:41:26;;;;;;;6.20;1.50;;;;;;;;;;5014446;28;20415;-56
2022/07/08 06:43:52;;;;;;;4.87;1.70;;;;;;;;;;5014642;28;20488;-56
2022/07/08 06:46:18;;;;;;;6.40;1.73;;;;;;;;;;5014697;28;20891;-56
2022/07/08 06:48:44;;;;;;;3.20;1.50;;;;;;;;;;5014513;28;20399;-55
2022/07/08 06:51:11;;;;;;;4.53;1.90;;;;;;;;;;5014273;28;20442;-57
2022/07/08 06:56:21;;;;;;;4.47;1.80;;;;;;;;;;5014510;28;20946;-56
2022/07/08 06:58:47;;;;;;;5.67;1.70;;;;;;;;;;5014330;28;20415;-56
2022/07/08 07:01:13;;;;;;;2.70;1.83;;;;;;;;;;5014102;28;20879;-56
2022/07/08 07:03:39;;;;;;;4.20;1.63;;;;;;;;;;5014315;28;20444;-56
2022/07/08 07:06:06;;;;;;;5.40;1.90;;;;;;;;;;5014266;28;20399;-56
2022/07/08 07:08:32;;;;;;;4.27;1.70;;;;;;;;;;5014365;28;20431;-56
2022/07/08 07:10:58;;;;;;;10.40;2.30;;;;;;;;;;5013366;28;20381;-56
2022/07/08 07:13:23;;;;;;;4.70;1.90;;;;;;;;;;5013715;28;20438;-56
2022/07/08 07:15:50;;;;;;;2.43;1.73;;;;;;;;;;5013911;28;20406;-56
2022/07/08 07:18:16;;;;;;;2.60;1.57;;;;;;;;;;5013564;28;20424;-56
2022/07/08 07:20:41;;;;;;;3.03;1.90;;;;;;;;;;5013667;28;20418;-56
2022/07/08 07:23:07;;;;;;;8.37;2.03;;;;;;;;;;5014013;28;20468;-57
2022/07/08 07:25:33;;;;;;;3.00;2.00;;;;;;;;;;5014007;28;20372;-56
2022/07/08 07:27:59;;;;;;;4.97;1.80;;;;;;;;;;5013790;28;20416;-56
2022/07/08 07:30:26;;;;;;;5.43;2.43;;;;;;;;;;5013615;28;20386;-56
2022/07/08 07:32:52;;;;;;;3.00;1.67;;;;;;;;;;5013678;28;20453;-56
2022/07/08 07:35:18;;;;;;;6.13;2.10;;;;;;;;;;5013805;28;20490;-56
2022/07/08 07:37:44;;;;;;;5.53;1.70;;;;;;;;;;5013657;28;20797;-56
2022/07/08 07:40:10;;;;;;;3.90;2.07;;;;;;;;;;5013609;28;20414;-57
2022/07/08 07:42:37;;;;;;;6.50;2.40;;;;;;;;;;5013649;28;20453;-56
2022/07/08 07:45:03;;;;;;;10.13;2.27;;;;;;;;;;5013817;28;20413;-56
2022/07/08 07:47:29;;;;;;;4.00;2.13;;;;;;;;;;5013708;28;20464;-56
2022/07/08 07:49:55;;;;;;;6.07;3.33;;;;;;;;;;5006633;28;20396;-56
2022/07/08 07:52:21;;;;;;;4.07;2.03;;;;;;;;;;5013445;28;20391;-56
2022/07/08 07:54:48;;;;;;;9.53;1.70;;;;;;;;;;5013405;28;20384;-56
2022/07/08 07:57:14;;;;;;;2.47;1.43;;;;;;;;;;5013347;28;20422;-56
2022/07/08 07:59:41;;;;;;;5.07;2.13;;;;;;;;;;5013170;28;20388;-56
2022/07/08 08:02:07;;;;;;;5.67;2.33;;;;;;;;;;5011262;28;20914;-56
2022/07/08 08:04:33;;;;;;;3.00;1.70;;;;;;;;;;5011388;28;20485;-56
2022/07/08 08:06:59;;;;;;;4.77;1.93;;;;;;;;;;5012147;28;20402;-56
2022/07/08 08:09:25;;;;;;;7.00;2.00;;;;;;;;;;5013718;28;20410;-57
2022/07/08 08:11:52;;;;;;;4.17;1.93;;;;;;;;;;5013884;28;20381;-56
2022/07/08 08:14:18;;;;;;;4.10;1.70;;;;;;;;;;5014716;28;20443;-56
2022/07/08 08:16:44;;;;;;;11.33;2.50;;;;;;;;;;5014257;28;20403;-57
2022/07/08 08:19:10;;;;;;;5.37;2.00;;;;;;;;;;5014442;28;20411;-57
2022/07/08 08:21:36;;;;;;;4.50;2.00;;;;;;;;;;5013975;28;20412;-57
2022/07/08 08:24:03;;;;;;;2.23;1.83;;;;;;;;;;5012967;28;20465;-57
2022/07/08 08:26:29;;;;;;;2.90;1.73;;;;;;;;;;5013201;28;20407;-56
2022/07/08 08:28:55;;;;;;;5.90;2.97;;;;;;;;;;5012356;28;20407;-57
2022/07/08 08:31:21;;;;;;;3.83;1.80;;;;;;;;;;5012343;28;20525;-57
2022/07/08 08:33:47;;;;;;;4.60;2.33;;;;;;;;;;5012531;28;20513;-57
2022/07/08 08:36:13;;;;;;;3.67;1.80;;;;;;;;;;5012855;28;20477;-57
2022/07/08 08:38:39;;;;;;;2.57;1.53;;;;;;;;;;5013044;28;20443;-58
2022/07/08 08:41:06;;;;;;;1.90;1.53;;;;;;;;;;5012963;28;20893;-57
2022/07/08 08:43:32;;;;;;;2.07;1.40;;;;;;;;;;5013148;28;20554;-58
2022/07/08 08:45:59;;;;;;;4.13;1.37;;;;;;;;;;5013295;28;20506;-57
2022/07/08 08:48:26;;;;;;;4.27;1.60;;;;;;;;;;5013764;28;20451;-58
2022/07/08 08:50:56;;;;;;;4.73;2.17;;;;;;;;;;5013048;28;20407;-58
2022/07/08 08:53:24;;;;;;;2.60;1.37;;;;;;;;;;5012813;28;20413;-58
2022/07/08 08:55:51;;;;;;;5.27;1.70;;;;;;;;;;5012845;28;20407;-58
2022/07/08 08:58:17;;;;;;;5.07;1.63;;;;;;;;;;5012420;28;20438;-57
2022/07/08 09:00:43;;;;;;;3.60;1.60;;;;;;;;;;5012058;28;20403;-58
2022/07/08 09:03:10;;;;;;;2.70;1.60;;;;;;;;;;5012109;28;20977;-58
2022/07/08 09:05:36;;;;;;;5.50;1.43;;;;;;;;;;5012504;28;20464;-57
2022/07/08 09:08:02;;;;;;;4.67;2.00;;;;;;;;;;5012807;28;20518;-58
2022/07/08 09:10:28;;;;;;;3.90;1.97;;;;;;;;;;5012591;28;20407;-58
2022/07/08 09:13:03;;;;;;;7.13;1.77;;;;;;;;;;5012146;28;20407;-58
2022/07/08 09:15:29;;;;;;;4.47;1.90;;;;;;;;;;5012584;28;20399;-58
2022/07/08 09:17:55;;;;;;;3.47;1.73;;;;;;;;;;5011818;28;20438;-58
2022/07/08 09:20:21;;;;;;;3.27;1.50;;;;;;;;;;5010926;28;20701;-58
2022/07/08 09:22:47;;;;;;;9.33;1.97;;;;;;;;;;5011865;28;21021;-59
2022/07/08 09:25:15;;;;;;;1.73;1.13;;;;;;;;;;5010664;28;20466;-58
2022/07/08 09:27:41;;;;;;;3.50;1.43;;;;;;;;;;5011872;28;20431;-58
2022/07/08 09:30:07;;;;;;;4.50;1.67;;;;;;;;;;5006210;28;20416;-57
2022/07/08 09:32:33;;;;;;;1.90;1.63;;;;;;;;;;4992652;28;20404;-57
2022/07/08 09:34:59;;;;;;;3.03;1.97;;;;;;;;;;4992798;28;20919;-58
2022/07/08 09:37:25;;;;;;;2.07;1.60;;;;;;;;;;4992802;28;20471;-57
2022/07/08 09:39:51;;;;;;;4.20;2.00;;;;;;;;;;4993438;28;20408;-57
2022/07/08 09:42:17;;;;;;;4.47;2.03;;;;;;;;;;4995802;28;20427;-57
2022/07/08 09:44:50;;;;;;;10.63;2.13;;;;;;;;;;4996135;28;20411;-57
2022/07/08 09:47:16;;;;;;;5.27;1.90;;;;;;;;;;4996177;28;20427;-58
2022/07/08 09:49:46;;;;;;;4.00;1.90;;;;;;;;;;4996603;28;20420;-57
2022/07/08 09:52:19;;;;;;;3.00;1.70;;;;;;;;;;5015162;28;20438;-58
2022/07/08 09:54:45;;;;;;;3.33;2.47;;;;;;;;;;5013968;28;20444;-57
2022/07/08 09:57:13;;;;;;;4.73;1.67;;;;;;;;;;5010027;28;20451;-57
2022/07/08 09:59:39;;;;;;;5.00;1.60;;;;;;;;;;5014726;28;20438;-57
2022/07/08 10:02:05;;;;;;;3.13;2.00;;;;;;;;;;5015044;28;20531;-57
2022/07/08 10:04:31;;;;;;;5.37;1.77;;;;;;;;;;5015194;28;20461;-57
2022/07/08 10:06:58;;;;;;;3.20;1.43;;;;;;;;;;5015075;28;21003;-58
2022/07/08 10:09:25;;;;;;;3.93;1.77;;;;;;;;;;5015103;28;20485;-57
2022/07/08 10:11:52;;;;;;;3.93;1.97;;;;;;;;;;5014870;28;20406;-57
2022/07/08 10:14:18;;;;;;;2.90;1.70;;;;;;;;;;5015569;28;20407;-57
2022/07/08 10:16:46;;;;;;;3.40;1.50;;;;;;;;;;5015661;28;20406;-57
2022/07/08 10:19:15;;;;;;;3.40;1.70;;;;;;;;;;5014975;28;20907;-57
2022/07/08 10:21:42;;;;;;;3.63;1.80;;;;;;;;;;5015246;28;20414;-58
2022/07/08 10:24:11;;;;;;;3.33;1.60;;;;;;;;;;5015511;28;20485;-58
2022/07/08 10:26:40;;;;;;;7.27;2.00;;;;;;;;;;5035177;28;20406;-58
2022/07/08 10:29:06;;;;;;;2.00;1.67;;;;;;;;;;5035803;28;20402;-58
2022/07/08 10:31:41;;;;;;;4.17;1.93;;;;;;;;;;5033657;28;20510;-58
2022/07/08 10:34:08;;;;;;;3.07;1.50;;;;;;;;;;5014779;28;20833;-58
2022/07/08 10:36:47;;;;;;;4.20;1.63;;;;;;;;;;5014241;28;20394;-58
2022/07/08 10:39:14;;;;;;;1.47;1.20;;;;;;;;;;4998714;28;20438;-57
2022/07/08 10:41:40;;;;;;;2.67;1.30;;;;;;;;;;5014664;28;20408;-57
2022/07/08 10:44:08;;;;;;;2.43;1.40;;;;;;;;;;5015044;28;20454;-58
2022/07/08 10:46:34;;;;;;;2.17;1.97;;;;;;;;;;5014882;28;20775;-57
2022/07/08 10:49:00;;;;;;;3.53;1.80;;;;;;;;;;5013473;28;20596;-57
2022/07/08 10:51:27;;;;;;;4.50;1.63;;;;;;;;;;5013310;28;20446;-57
2022/07/08 10:53:57;;;;;;;1.97;1.77;;;;;;;;;;5014697;28;20407;-57
2022/07/08 10:56:41;;;;;;;2.60;1.80;;;;;;;;;;4997359;28;20427;-57
2022/07/08 10:59:17;;;;;;;3.70;2.00;;;;;;;;;;4995170;28;20489;-58
2022/07/08 11:01:45;;;;;;;4.37;1.90;;;;;;;;;;5020141;28;20424;-57
2022/07/08 11:04:31;;;;;;;5.13;2.07;;;;;;;;;;5015829;28;20460;-58
2022/07/08 11:07:22;;;;;;;3.67;1.70;;;;;;;;;;5014224;28;20443;-57
2022/07/08 11:09:52;;;;;;;8.10;1.80;;;;;;;;;;5014844;28;20429;-58
2022/07/08 11:12:24;;;;;;;4.13;2.10;;;;;;;;;;5013083;28;20470;-58
2022/07/08 11:14:51;;;;;;;1.60;1.50;;;;;;;;;;5014439;28;20420;-57
2022/07/08 11:17:18;;;;;;;3.37;1.80;;;;;;;;;;5014290;28;20435;-57
2022/07/08 11:19:45;;;;;;;4.87;2.00;;;;;;;;;;5013984;28;20411;-57
2022/07/08 11:22:11;;;;;;;2.77;1.70;;;;;;;;;;5013758;28;20480;-57
2022/07/08 11:24:41;;;;;;;2.27;1.80;;;;;;;;;;5013630;28;20904;-58
2022/07/08 11:27:07;;;;;;;2.43;1.90;;;;;;;;;;5014252;28;20433;-58
2022/07/08 11:29:33;;;;;;;3.07;1.60;;;;;;;;;;5014193;28;20417;-58
2022/07/08 11:32:01;;;;;;;1.87;1.50;;;;;;;;;;5013770;28;20818;-58
2022/07/08 11:34:27;;;;;;;3.93;2.07;;;;;;;;;;5014224;28;20768;-58
2022/07/08 11:36:54;;;;;;;2.53;1.80;;;;;;;;;;5013610;28;20930;-58
2022/07/08 11:39:20;;;;;;;5.53;1.67;;;;;;;;;;4994605;28;20951;-57
2022/07/08 11:41:46;;;;;;;1.50;1.40;;;;;;;;;;4994289;28;20443;-58
2022/07/08 11:44:12;;;;;;;2.47;1.40;;;;;;;;;;5012511;28;20977;-57
2022/07/08 11:46:45;;;;;;;3.63;1.60;;;;;;;;;;5014084;28;20406;-57
2022/07/08 11:49:12;;;;;;;3.27;1.80;;;;;;;;;;5013492;28;20412;-58
2022/07/08 11:51:37;;;;;;;3.67;1.57;;;;;;;;;;5013240;28;20411;-58
2022/07/08 11:54:03;;;;;;;4.67;1.93;;;;;;;;;;5013399;28;20422;-57
2022/07/08 11:56:31;;;;;;;3.17;2.10;;;;;;;;;;5013594;28;20439;-57
2022/07/08 11:58:57;;;;;;;4.87;1.83;;;;;;;;;;5012953;28;20427;-57
2022/07/08 12:01:23;;;;;;;3.33;1.90;;;;;;;;;;5013241;28;20425;-56
2022/07/08 12:03:49;;;;;;;3.60;2.07;;;;;;;;;;5012831;28;20486;-58
2022/07/08 12:06:25;;;;;;;7.70;2.07;;;;;;;;;;5012564;28;20846;-58
2022/07/08 12:08:51;;;;;;;3.90;1.80;;;;;;;;;;5013021;28;20416;-58
2022/07/08 12:11:21;;;;;;;4.87;1.60;;;;;;;;;;5013064;28;20461;-58
2022/07/08 12:13:48;;;;;;;4.37;1.80;;;;;;;;;;5013149;28;20991;-57
2022/07/08 12:16:29;;;;;;;4.63;2.00;;;;;;;;;;5012417;28;20433;-57
2022/07/08 12:18:55;;;;;;;2.47;1.70;;;;;;;;;;4993312;28;20412;-57
2022/07/08 12:21:21;;;;;;;3.77;1.27;;;;;;;;;;4998811;28;20431;-58
2022/07/08 12:24:04;;;;;;;2.63;1.60;;;;;;;;;;5018402;28;20465;-57
2022/07/08 12:26:30;;;;;;;7.40;1.67;;;;;;;;;;5032499;28;20405;-57
2022/07/08 12:28:57;;;;;;;2.33;1.40;;;;;;;;;;5015249;28;20417;-57
2022/07/08 12:31:37;;;;;;;2.60;1.70;;;;;;;;;;5012854;28;20406;-58
2022/07/08 12:34:04;;;;;;;2.80;1.30;;;;;;;;;;5013185;28;20433;-57
2022/07/08 12:36:30;;;;;;;3.50;2.10;;;;;;;;;;5013293;28;20456;-58
2022/07/08 12:38:56;;;;;;;2.07;1.60;;;;;;;;;;5012815;28;20431;-58
2022/07/08 12:41:22;;;;;;;4.37;2.20;;;;;;;;;;5012774;28;20414;-58
2022/07/08 12:43:48;;;;;;;5.50;1.67;;;;;;;;;;5012860;28;20451;-58
2022/07/08 12:46:14;;;;;;;3.67;1.60;;;;;;;;;;5012775;28;20772;-56
2022/07/08 12:48:40;;;;;;;2.70;1.50;;;;;;;;;;5012714;28;20415;-58
2022/07/08 12:51:09;;;;;;;2.63;1.37;;;;;;;;;;5012426;28;20831;-58
2022/07/08 12:53:35;;;;;;;2.07;1.30;;;;;;;;;;5012751;28;20894;-58
2022/07/08 12:56:01;;;;;;;1.43;1.33;;;;;;;;;;5012867;28;20407;-58
2022/07/08 12:58:27;;;;;;;4.10;1.53;;;;;;;;;;5012669;28;20422;-58
2022/07/08 13:00:53;;;;;;;3.73;1.97;;;;;;;;;;5011869;28;20918;-57
2022/07/08 13:03:19;;;;;;;1.77;1.43;;;;;;;;;;5012520;28;20891;-58
2022/07/08 13:05:45;;;;;;;3.13;1.50;;;;;;;;;;5010307;28;20919;-58
2022/07/08 13:08:11;;;;;;;6.40;1.90;;;;;;;;;;5012612;28;20938;-57
2022/07/08 13:10:37;;;;;;;2.97;2.00;;;;;;;;;;5012919;28;20426;-57
2022/07/08 13:13:06;;;;;;;2.40;1.57;;;;;;;;;;5012146;28;20530;-58
2022/07/08 13:15:33;;;;;;;2.80;1.43;;;;;;;;;;5012317;28;20407;-58
2022/07/08 13:18:00;;;;;;;3.20;1.47;;;;;;;;;;5011747;28;20453;-56
2022/07/08 13:20:26;;;;;;;2.17;1.40;;;;;;;;;;5012265;28;20411;-57
2022/07/08 13:22:52;;;;;;;2.10;1.30;;;;;;;;;;5012382;28;20792;-56
2022/07/08 13:25:18;;;;;;;5.10;1.90;;;;;;;;;;5011990;28;20710;-57
2022/07/08 13:27:45;;;;;;;1.70;1.60;;;;;;;;;;5010575;28;20542;-57
2022/07/08 13:30:11;;;;;;;2.17;1.50;;;;;;;;;;5012207;28;20402;-57
2022/07/08 13:32:37;;;;;;;13.70;11.00;;;;;;;;;;5012103;28;20430;-57
2022/07/08 13:35:04;;;;;;;2.47;1.60;;;;;;;;;;5012423;28;20403;-58
2022/07/08 13:37:30;;;;;;;5.17;1.90;;;;;;;;;;5011718;28;20536;-57
2022/07/08 13:39:56;;;;;;;2.40;1.87;;;;;;;;;;5011634;28;20423;-58
2022/07/08 13:42:22;;;;;;;1.80;1.63;;;;;;;;;;5011896;28;20416;-57
2022/07/08 13:44:48;;;;;;;2.70;1.50;;;;;;;;;;5012383;28;20895;-57
2022/07/08 13:47:14;;;;;;;2.93;1.77;;;;;;;;;;5012219;28;20514;-57
2022/07/08 13:49:40;;;;;;;2.23;1.77;;;;;;;;;;5012328;28;20414;-58
2022/07/08 13:52:06;;;;;;;3.07;1.70;;;;;;;;;;5012038;28;20410;-58
2022/07/08 13:54:32;;;;;;;3.30;1.77;;;;;;;;;;5012010;28;20838;-57
2022/07/08 13:56:58;;;;;;;2.10;1.70;;;;;;;;;;5011952;28;20789;-58
2022/07/08 13:59:24;;;;;;;3.70;1.40;;;;;;;;;;5005677;28;20425;-58
2022/07/08 14:01:50;;;;;;;3.43;1.60;;;;;;;;;;5011593;28;20419;-57
2022/07/08 14:04:16;;;;;;;3.57;1.47;;;;;;;;;;5012222;28;20463;-58
2022/07/08 14:06:42;;;;;;;3.40;1.90;;;;;;;;;;5011854;28;20411;-58
2022/07/08 14:09:08;;;;;;;5.37;1.50;;;;;;;;;;5010213;28;20507;-57
2022/07/08 14:11:34;;;;;;;5.90;1.70;;;;;;;;;;5011524;28;20494;-58
2022/07/08 14:14:01;;;;;;;3.50;2.10;;;;;;;;;;5011497;28;20418;-57
2022/07/08 14:16:27;;;;;;;3.50;2.00;;;;;;;;;;5010267;28;20411;-57
2022/07/08 14:18:53;;;;;;;2.53;1.70;;;;;;;;;;5011374;28;20840;-57
2022/07/08 14:21:19;;;;;;;3.33;2.17;;;;;;;;;;5011671;28;20415;-58
2022/07/08 14:23:45;;;;;;;3.47;1.70;;;;;;;;;;5011432;28;20474;-61
2022/07/08 14:26:11;;;;;;;3.50;2.23;;;;;;;;;;5012828;28;20411;-58
2022/07/08 14:28:37;;;;;;;1.90;1.57;;;;;;;;;;5014823;28;20472;-58
2022/07/08 14:31:05;;;;;;;2.40;1.70;;;;;;;;;;5014701;28;20415;-58
2022/07/08 14:33:31;;;;;;;2.83;1.53;;;;;;;;;;5015534;28;20415;-58
2022/07/08 14:35:59;;;;;;;4.07;1.33;;;;;;;;;;5014689;28;20778;-58
2022/07/08 14:38:25;;;;;;;2.07;1.60;;;;;;;;;;5015038;28;20467;-58
2022/07/08 14:40:51;;;;;;;2.23;1.50;;;;;;;;;;5014782;28;20422;-58
2022/07/08 14:43:18;;;;;;;3.27;1.60;;;;;;;;;;5013722;28;20502;-57
2022/07/08 14:45:44;;;;;;;5.50;1.83;;;;;;;;;;5014515;28;20423;-57
2022/07/08 14:48:11;;;;;;;1.77;1.30;;;;;;;;;;5014432;28;20518;-57